sensor_id;sensor_type;location;lat;lon;timestamp;P1;durP1;ratioP1;P2;durP2;ratioP2
33184;SDS011;19550;42.872;25.494;2023-08-24T00:02:05;14.80;;;12.75;;
33184;SDS011;19550;42.872;25.494;2023-08-24T00:04:32;14.63;;;12.57;;
33184;SDS011;19550;42.872;25.494;2023-08-24T00:07:00;16.10;;;13.40;;
33184;SDS011;19550;42.872;25.494;2023-08-24T00:09:27;18.83;;;13.40;;
33184;SDS011;19550;42.872;25.494;2023-08-24T00:11:55;14.20;;;12.32;;
33184;SDS011;19550;42.872;25.494;2023-08-24T00:14:23;14.75;;;13.25;;
33184;SDS011;19550;42.872;25.494;2023-08-24T00:16:50;13.68;;;12.27;;
33184;SDS011;19550;42.872;25.494;2023-08-24T00:19:16;13.73;;;12.32;;
33184;SDS011;19550;42.872;25.494;2023-08-24T00:21:43;18.55;;;13.40;;
33184;SDS011;19550;42.872;25.494;2023-08-24T00:24:10;14.82;;;13.32;;
33184;SDS011;19550;42.872;25.494;2023-08-24T00:26:37;15.07;;;13.48;;
33184;SDS011;19550;42.872;25.494;2023-08-24T00:29:04;14.35;;;12.52;;
33184;SDS011;19550;42.872;25.494;2023-08-24T00:31:32;15.18;;;12.77;;
33184;SDS011;19550;42.872;25.494;2023-08-24T00:33:58;14.50;;;12.50;;
33184;SDS011;19550;42.872;25.494;2023-08-24T00:36:25;15.73;;;13.55;;
33184;SDS011;19550;42.872;25.494;2023-08-24T00:38:52;14.68;;;13.18;;
33184;SDS011;19550;42.872;25.494;2023-08-24T00:41:19;16.65;;;13.70;;
33184;SDS011;19550;42.872;25.494;2023-08-24T00:43:47;17.52;;;13.18;;
33184;SDS011;19550;42.872;25.494;2023-08-24T00:46:15;17.65;;;13.35;;
33184;SDS011;19550;42.872;25.494;2023-08-24T00:48:44;20.98;;;13.13;;
33184;SDS011;19550;42.872;25.494;2023-08-24T00:51:10;16.90;;;13.27;;
33184;SDS011;19550;42.872;25.494;2023-08-24T00:53:37;15.52;;;13.38;;
33184;SDS011;19550;42.872;25.494;2023-08-24T00:56:04;17.33;;;14.07;;
33184;SDS011;19550;42.872;25.494;2023-08-24T00:58:32;14.68;;;13.18;;
33184;SDS011;19550;42.872;25.494;2023-08-24T01:01:00;16.65;;;13.20;;
33184;SDS011;19550;42.872;25.494;2023-08-24T01:03:27;17.52;;;13.68;;
33184;SDS011;19550;42.872;25.494;2023-08-24T01:05:55;14.95;;;13.35;;
33184;SDS011;19550;42.872;25.494;2023-08-24T01:08:22;14.73;;;13.20;;
33184;SDS011;19550;42.872;25.494;2023-08-24T01:10:52;14.43;;;12.80;;
33184;SDS011;19550;42.872;25.494;2023-08-24T01:13:26;15.48;;;12.95;;
33184;SDS011;19550;42.872;25.494;2023-08-24T01:16:00;17.33;;;13.48;;
33184;SDS011;19550;42.872;25.494;2023-08-24T01:18:33;17.63;;;13.57;;
33184;SDS011;19550;42.872;25.494;2023-08-24T01:21:03;14.73;;;13.18;;
33184;SDS011;19550;42.872;25.494;2023-08-24T01:23:35;15.60;;;14.00;;
33184;SDS011;19550;42.872;25.494;2023-08-24T01:26:12;16.55;;;13.57;;
33184;SDS011;19550;42.872;25.494;2023-08-24T01:28:43;18.10;;;13.82;;
33184;SDS011;19550;42.872;25.494;2023-08-24T01:31:11;16.33;;;13.27;;
33184;SDS011;19550;42.872;25.494;2023-08-24T01:36:07;17.00;;;13.45;;
33184;SDS011;19550;42.872;25.494;2023-08-24T01:38:35;16.30;;;14.45;;
33184;SDS011;19550;42.872;25.494;2023-08-24T01:41:04;16.70;;;13.77;;
33184;SDS011;19550;42.872;25.494;2023-08-24T01:43:39;17.75;;;14.48;;
33184;SDS011;19550;42.872;25.494;2023-08-24T01:46:08;17.67;;;14.57;;
33184;SDS011;19550;42.872;25.494;2023-08-24T01:48:39;15.70;;;14.07;;
33184;SDS011;19550;42.872;25.494;2023-08-24T01:51:07;15.15;;;13.52;;
33184;SDS011;19550;42.872;25.494;2023-08-24T01:53:35;18.77;;;13.63;;
33184;SDS011;19550;42.872;25.494;2023-08-24T01:56:07;16.35;;;14.30;;
33184;SDS011;19550;42.872;25.494;2023-08-24T01:58:34;14.77;;;13.35;;
33184;SDS011;19550;42.872;25.494;2023-08-24T02:01:03;16.30;;;14.05;;
33184;SDS011;19550;42.872;25.494;2023-08-24T02:03:30;15.30;;;13.80;;
33184;SDS011;19550;42.872;25.494;2023-08-24T02:05:57;18.80;;;13.73;;
33184;SDS011;19550;42.872;25.494;2023-08-24T02:08:24;15.73;;;13.95;;
33184;SDS011;19550;42.872;25.494;2023-08-24T02:10:51;16.58;;;13.88;;
33184;SDS011;19550;42.872;25.494;2023-08-24T02:13:18;15.70;;;13.88;;
33184;SDS011;19550;42.872;25.494;2023-08-24T02:15:45;19.88;;;14.40;;
33184;SDS011;19550;42.872;25.494;2023-08-24T02:18:13;15.90;;;14.10;;
33184;SDS011;19550;42.872;25.494;2023-08-24T02:20:40;16.90;;;14.13;;
33184;SDS011;19550;42.872;25.494;2023-08-24T02:23:07;15.20;;;13.52;;
33184;SDS011;19550;42.872;25.494;2023-08-24T02:25:34;15.50;;;13.93;;
33184;SDS011;19550;42.872;25.494;2023-08-24T02:28:00;16.10;;;14.15;;
33184;SDS011;19550;42.872;25.494;2023-08-24T02:30:27;15.30;;;13.70;;
33184;SDS011;19550;42.872;25.494;2023-08-24T02:32:54;17.67;;;13.80;;
33184;SDS011;19550;42.872;25.494;2023-08-24T02:35:22;15.68;;;13.93;;
33184;SDS011;19550;42.872;25.494;2023-08-24T02:37:49;18.42;;;14.13;;
33184;SDS011;19550;42.872;25.494;2023-08-24T02:40:16;17.02;;;14.50;;
33184;SDS011;19550;42.872;25.494;2023-08-24T02:42:43;17.20;;;15.18;;
33184;SDS011;19550;42.872;25.494;2023-08-24T02:45:10;15.93;;;14.25;;
33184;SDS011;19550;42.872;25.494;2023-08-24T02:47:37;15.75;;;14.15;;
33184;SDS011;19550;42.872;25.494;2023-08-24T02:50:04;17.17;;;14.90;;
33184;SDS011;19550;42.872;25.494;2023-08-24T02:52:33;16.98;;;15.13;;
33184;SDS011;19550;42.872;25.494;2023-08-24T02:55:01;16.05;;;14.45;;
33184;SDS011;19550;42.872;25.494;2023-08-24T02:57:28;18.98;;;14.82;;
33184;SDS011;19550;42.872;25.494;2023-08-24T02:59:55;17.60;;;13.88;;
33184;SDS011;19550;42.872;25.494;2023-08-24T03:02:22;16.55;;;14.85;;
33184;SDS011;19550;42.872;25.494;2023-08-24T03:04:49;17.42;;;14.75;;
33184;SDS011;19550;42.872;25.494;2023-08-24T03:07:16;18.75;;;14.63;;
33184;SDS011;19550;42.872;25.494;2023-08-24T03:09:44;16.23;;;14.52;;
33184;SDS011;19550;42.872;25.494;2023-08-24T03:12:11;19.35;;;14.63;;
33184;SDS011;19550;42.872;25.494;2023-08-24T03:14:38;16.90;;;14.35;;
33184;SDS011;19550;42.872;25.494;2023-08-24T03:17:05;17.90;;;14.52;;
33184;SDS011;19550;42.872;25.494;2023-08-24T03:19:32;18.77;;;14.50;;
33184;SDS011;19550;42.872;25.494;2023-08-24T03:21:59;17.40;;;14.35;;
33184;SDS011;19550;42.872;25.494;2023-08-24T03:24:26;14.73;;;13.10;;
33184;SDS011;19550;42.872;25.494;2023-08-24T03:26:54;17.63;;;14.65;;
33184;SDS011;19550;42.872;25.494;2023-08-24T03:29:21;16.85;;;15.05;;
33184;SDS011;19550;42.872;25.494;2023-08-24T03:31:48;17.65;;;14.57;;
33184;SDS011;19550;42.872;25.494;2023-08-24T03:34:14;18.65;;;15.15;;
33184;SDS011;19550;42.872;25.494;2023-08-24T03:36:44;23.45;;;14.95;;
33184;SDS011;19550;42.872;25.494;2023-08-24T03:39:12;16.10;;;14.40;;
33184;SDS011;19550;42.872;25.494;2023-08-24T03:41:40;16.35;;;14.65;;
33184;SDS011;19550;42.872;25.494;2023-08-24T03:44:08;18.13;;;14.95;;
33184;SDS011;19550;42.872;25.494;2023-08-24T03:46:35;15.98;;;14.27;;
33184;SDS011;19550;42.872;25.494;2023-08-24T03:49:02;16.88;;;14.98;;
33184;SDS011;19550;42.872;25.494;2023-08-24T03:51:29;17.23;;;15.18;;
33184;SDS011;19550;42.872;25.494;2023-08-24T03:53:56;21.23;;;14.77;;
33184;SDS011;19550;42.872;25.494;2023-08-24T03:56:23;16.83;;;15.13;;
33184;SDS011;19550;42.872;25.494;2023-08-24T03:58:50;22.88;;;15.40;;
33184;SDS011;19550;42.872;25.494;2023-08-24T04:01:19;17.80;;;15.23;;
33184;SDS011;19550;42.872;25.494;2023-08-24T04:03:46;17.42;;;15.63;;
33184;SDS011;19550;42.872;25.494;2023-08-24T04:06:12;17.10;;;15.27;;
33184;SDS011;19550;42.872;25.494;2023-08-24T04:08:41;20.27;;;14.80;;
33184;SDS011;19550;42.872;25.494;2023-08-24T04:11:07;18.98;;;16.08;;
33184;SDS011;19550;42.872;25.494;2023-08-24T04:13:34;44.90;;;34.47;;
33184;SDS011;19550;42.872;25.494;2023-08-24T04:16:01;26.33;;;22.90;;
33184;SDS011;19550;42.872;25.494;2023-08-24T04:18:30;20.20;;;18.20;;
33184;SDS011;19550;42.872;25.494;2023-08-24T04:20:57;17.30;;;15.48;;
33184;SDS011;19550;42.872;25.494;2023-08-24T04:23:24;18.30;;;16.40;;
33184;SDS011;19550;42.872;25.494;2023-08-24T04:25:52;18.02;;;16.10;;
33184;SDS011;19550;42.872;25.494;2023-08-24T04:28:19;19.90;;;16.70;;
33184;SDS011;19550;42.872;25.494;2023-08-24T04:30:49;23.40;;;15.13;;
33184;SDS011;19550;42.872;25.494;2023-08-24T04:33:17;20.98;;;16.30;;
33184;SDS011;19550;42.872;25.494;2023-08-24T04:35:46;18.25;;;15.30;;
33184;SDS011;19550;42.872;25.494;2023-08-24T04:38:14;21.83;;;16.65;;
33184;SDS011;19550;42.872;25.494;2023-08-24T04:40:48;51.97;;;44.10;;
33184;SDS011;19550;42.872;25.494;2023-08-24T04:43:15;19.70;;;17.60;;
33184;SDS011;19550;42.872;25.494;2023-08-24T04:45:42;17.08;;;15.38;;
33184;SDS011;19550;42.872;25.494;2023-08-24T04:48:08;17.38;;;15.48;;
33184;SDS011;19550;42.872;25.494;2023-08-24T04:50:35;17.92;;;16.15;;
33184;SDS011;19550;42.872;25.494;2023-08-24T04:53:04;21.55;;;16.45;;
33184;SDS011;19550;42.872;25.494;2023-08-24T04:55:31;20.37;;;16.17;;
33184;SDS011;19550;42.872;25.494;2023-08-24T04:57:58;18.63;;;15.30;;
33184;SDS011;19550;42.872;25.494;2023-08-24T05:00:25;17.45;;;15.60;;
33184;SDS011;19550;42.872;25.494;2023-08-24T05:02:52;17.65;;;15.15;;
33184;SDS011;19550;42.872;25.494;2023-08-24T05:05:19;23.25;;;16.00;;
33184;SDS011;19550;42.872;25.494;2023-08-24T05:07:46;21.02;;;14.90;;
33184;SDS011;19550;42.872;25.494;2023-08-24T05:10:14;16.80;;;15.00;;
33184;SDS011;19550;42.872;25.494;2023-08-24T05:12:41;16.45;;;14.38;;
33184;SDS011;19550;42.872;25.494;2023-08-24T05:15:08;20.42;;;16.38;;
33184;SDS011;19550;42.872;25.494;2023-08-24T05:17:35;19.73;;;15.43;;
33184;SDS011;19550;42.872;25.494;2023-08-24T05:20:02;17.38;;;15.57;;
33184;SDS011;19550;42.872;25.494;2023-08-24T05:22:30;18.50;;;15.10;;
33184;SDS011;19550;42.872;25.494;2023-08-24T05:24:57;16.50;;;14.77;;
33184;SDS011;19550;42.872;25.494;2023-08-24T05:27:25;18.40;;;15.70;;
33184;SDS011;19550;42.872;25.494;2023-08-24T05:29:52;45.75;;;20.48;;
33184;SDS011;19550;42.872;25.494;2023-08-24T05:32:19;34.33;;;20.13;;
33184;SDS011;19550;42.872;25.494;2023-08-24T05:34:45;40.00;;;21.40;;
33184;SDS011;19550;42.872;25.494;2023-08-24T05:37:12;45.67;;;21.65;;
33184;SDS011;19550;42.872;25.494;2023-08-24T05:39:39;37.75;;;22.10;;
33184;SDS011;19550;42.872;25.494;2023-08-24T05:42:06;36.30;;;21.20;;
33184;SDS011;19550;42.872;25.494;2023-08-24T05:44:35;36.35;;;21.42;;
33184;SDS011;19550;42.872;25.494;2023-08-24T05:47:02;29.27;;;22.83;;
33184;SDS011;19550;42.872;25.494;2023-08-24T05:49:28;23.05;;;18.45;;
33184;SDS011;19550;42.872;25.494;2023-08-24T05:51:56;34.10;;;21.10;;
33184;SDS011;19550;42.872;25.494;2023-08-24T05:54:23;21.75;;;18.83;;
33184;SDS011;19550;42.872;25.494;2023-08-24T05:56:49;20.17;;;18.05;;
33184;SDS011;19550;42.872;25.494;2023-08-24T05:59:16;26.15;;;21.27;;
33184;SDS011;19550;42.872;25.494;2023-08-24T06:01:45;30.60;;;21.98;;
33184;SDS011;19550;42.872;25.494;2023-08-24T06:04:12;29.17;;;22.00;;
33184;SDS011;19550;42.872;25.494;2023-08-24T06:06:39;28.55;;;20.83;;
33184;SDS011;19550;42.872;25.494;2023-08-24T06:09:06;24.17;;;20.88;;
33184;SDS011;19550;42.872;25.494;2023-08-24T06:11:33;26.85;;;20.83;;
33184;SDS011;19550;42.872;25.494;2023-08-24T06:14:01;24.48;;;20.92;;
33184;SDS011;19550;42.872;25.494;2023-08-24T06:16:27;25.95;;;20.63;;
33184;SDS011;19550;42.872;25.494;2023-08-24T06:18:56;28.67;;;20.58;;
33184;SDS011;19550;42.872;25.494;2023-08-24T06:21:23;27.05;;;20.13;;
33184;SDS011;19550;42.872;25.494;2023-08-24T06:23:50;26.52;;;22.65;;
33184;SDS011;19550;42.872;25.494;2023-08-24T06:26:16;26.00;;;21.52;;
33184;SDS011;19550;42.872;25.494;2023-08-24T06:28:43;24.92;;;18.65;;
33184;SDS011;19550;42.872;25.494;2023-08-24T06:31:10;27.25;;;21.75;;
33184;SDS011;19550;42.872;25.494;2023-08-24T06:33:37;25.65;;;21.00;;
33184;SDS011;19550;42.872;25.494;2023-08-24T06:36:06;25.77;;;21.52;;
33184;SDS011;19550;42.872;25.494;2023-08-24T06:38:33;19.58;;;17.48;;
33184;SDS011;19550;42.872;25.494;2023-08-24T06:41:00;21.05;;;17.80;;
33184;SDS011;19550;42.872;25.494;2023-08-24T06:43:27;26.85;;;19.98;;
33184;SDS011;19550;42.872;25.494;2023-08-24T06:45:54;22.95;;;18.42;;
33184;SDS011;19550;42.872;25.494;2023-08-24T06:48:21;26.25;;;19.88;;
33184;SDS011;19550;42.872;25.494;2023-08-24T06:50:48;21.58;;;18.67;;
33184;SDS011;19550;42.872;25.494;2023-08-24T06:53:16;22.73;;;17.95;;
33184;SDS011;19550;42.872;25.494;2023-08-24T06:55:43;22.35;;;17.92;;
33184;SDS011;19550;42.872;25.494;2023-08-24T06:58:09;18.63;;;16.52;;
33184;SDS011;19550;42.872;25.494;2023-08-24T07:00:36;19.60;;;17.30;;
33184;SDS011;19550;42.872;25.494;2023-08-24T07:03:03;21.08;;;18.05;;
33184;SDS011;19550;42.872;25.494;2023-08-24T07:05:31;23.65;;;17.35;;
33184;SDS011;19550;42.872;25.494;2023-08-24T07:07:59;21.60;;;16.23;;
33184;SDS011;19550;42.872;25.494;2023-08-24T07:10:29;24.40;;;17.60;;
33184;SDS011;19550;42.872;25.494;2023-08-24T07:12:56;20.05;;;17.13;;
33184;SDS011;19550;42.872;25.494;2023-08-24T07:15:23;22.38;;;17.27;;
33184;SDS011;19550;42.872;25.494;2023-08-24T07:17:49;22.67;;;15.63;;
33184;SDS011;19550;42.872;25.494;2023-08-24T07:20:17;20.65;;;17.02;;
33184;SDS011;19550;42.872;25.494;2023-08-24T07:22:44;19.55;;;16.63;;
33184;SDS011;19550;42.872;25.494;2023-08-24T07:25:12;19.88;;;14.95;;
33184;SDS011;19550;42.872;25.494;2023-08-24T07:27:41;24.33;;;15.75;;
33184;SDS011;19550;42.872;25.494;2023-08-24T07:30:08;19.08;;;14.10;;
33184;SDS011;19550;42.872;25.494;2023-08-24T07:32:36;17.75;;;14.13;;
33184;SDS011;19550;42.872;25.494;2023-08-24T07:35:03;19.38;;;13.93;;
33184;SDS011;19550;42.872;25.494;2023-08-24T07:37:31;19.13;;;13.50;;
33184;SDS011;19550;42.872;25.494;2023-08-24T07:39:58;15.55;;;12.48;;
33184;SDS011;19550;42.872;25.494;2023-08-24T07:42:25;16.25;;;12.80;;
33184;SDS011;19550;42.872;25.494;2023-08-24T07:44:53;14.50;;;12.98;;
33184;SDS011;19550;42.872;25.494;2023-08-24T07:47:20;15.32;;;13.52;;
33184;SDS011;19550;42.872;25.494;2023-08-24T07:49:48;17.05;;;12.00;;
33184;SDS011;19550;42.872;25.494;2023-08-24T07:52:15;14.73;;;12.73;;
33184;SDS011;19550;42.872;25.494;2023-08-24T07:54:42;16.40;;;12.98;;
33184;SDS011;19550;42.872;25.494;2023-08-24T07:57:09;17.52;;;13.07;;
33184;SDS011;19550;42.872;25.494;2023-08-24T07:59:36;14.02;;;12.52;;
33184;SDS011;19550;42.872;25.494;2023-08-24T08:02:04;14.38;;;12.25;;
33184;SDS011;19550;42.872;25.494;2023-08-24T08:04:32;16.92;;;11.48;;
33184;SDS011;19550;42.872;25.494;2023-08-24T08:06:58;13.20;;;11.18;;
33184;SDS011;19550;42.872;25.494;2023-08-24T08:09:25;19.45;;;11.55;;
33184;SDS011;19550;42.872;25.494;2023-08-24T08:11:52;12.73;;;11.30;;
33184;SDS011;19550;42.872;25.494;2023-08-24T08:14:19;12.55;;;10.93;;
33184;SDS011;19550;42.872;25.494;2023-08-24T08:16:46;13.35;;;11.23;;
33184;SDS011;19550;42.872;25.494;2023-08-24T08:19:14;12.93;;;11.63;;
33184;SDS011;19550;42.872;25.494;2023-08-24T08:21:43;12.23;;;10.35;;
33184;SDS011;19550;42.872;25.494;2023-08-24T08:24:09;11.75;;;9.95;;
33184;SDS011;19550;42.872;25.494;2023-08-24T08:26:37;12.93;;;10.65;;
33184;SDS011;19550;42.872;25.494;2023-08-24T08:29:04;12.70;;;10.02;;
33184;SDS011;19550;42.872;25.494;2023-08-24T08:31:32;15.07;;;10.65;;
33184;SDS011;19550;42.872;25.494;2023-08-24T08:33:59;13.50;;;10.63;;
33184;SDS011;19550;42.872;25.494;2023-08-24T08:36:27;13.43;;;11.23;;
33184;SDS011;19550;42.872;25.494;2023-08-24T08:38:54;18.17;;;10.98;;
33184;SDS011;19550;42.872;25.494;2023-08-24T08:41:22;11.45;;;10.25;;
33184;SDS011;19550;42.872;25.494;2023-08-24T08:43:49;19.67;;;11.05;;
33184;SDS011;19550;42.872;25.494;2023-08-24T08:46:16;13.13;;;11.70;;
33184;SDS011;19550;42.872;25.494;2023-08-24T08:48:43;11.82;;;10.63;;
33184;SDS011;19550;42.872;25.494;2023-08-24T08:51:11;13.07;;;11.77;;
33184;SDS011;19550;42.872;25.494;2023-08-24T08:53:42;13.88;;;12.10;;
33184;SDS011;19550;42.872;25.494;2023-08-24T08:56:09;14.82;;;13.27;;
33184;SDS011;19550;42.872;25.494;2023-08-24T08:58:36;13.38;;;12.07;;
33184;SDS011;19550;42.872;25.494;2023-08-24T09:01:04;15.20;;;13.48;;
33184;SDS011;19550;42.872;25.494;2023-08-24T09:03:31;15.25;;;13.95;;
33184;SDS011;19550;42.872;25.494;2023-08-24T09:05:58;16.55;;;13.45;;
33184;SDS011;19550;42.872;25.494;2023-08-24T09:08:25;14.90;;;13.02;;
33184;SDS011;19550;42.872;25.494;2023-08-24T09:10:54;16.45;;;13.00;;
33184;SDS011;19550;42.872;25.494;2023-08-24T09:13:21;16.20;;;12.30;;
33184;SDS011;19550;42.872;25.494;2023-08-24T09:15:50;15.73;;;13.05;;
33184;SDS011;19550;42.872;25.494;2023-08-24T09:18:18;15.95;;;12.18;;
33184;SDS011;19550;42.872;25.494;2023-08-24T09:20:47;17.85;;;12.95;;
33184;SDS011;19550;42.872;25.494;2023-08-24T09:23:17;17.08;;;13.32;;
33184;SDS011;19550;42.872;25.494;2023-08-24T09:25:45;15.57;;;12.18;;
33184;SDS011;19550;42.872;25.494;2023-08-24T09:28:14;17.92;;;12.65;;
33184;SDS011;19550;42.872;25.494;2023-08-24T09:30:52;14.75;;;11.85;;
33184;SDS011;19550;42.872;25.494;2023-08-24T09:33:20;15.32;;;11.98;;
33184;SDS011;19550;42.872;25.494;2023-08-24T09:35:51;14.50;;;12.40;;
33184;SDS011;19550;42.872;25.494;2023-08-24T09:38:19;16.50;;;12.33;;
33184;SDS011;19550;42.872;25.494;2023-08-24T09:40:48;13.80;;;12.43;;
33184;SDS011;19550;42.872;25.494;2023-08-24T09:43:18;15.25;;;12.82;;
33184;SDS011;19550;42.872;25.494;2023-08-24T09:45:47;17.15;;;11.93;;
33184;SDS011;19550;42.872;25.494;2023-08-24T09:48:15;17.20;;;12.40;;
33184;SDS011;19550;42.872;25.494;2023-08-24T09:50:43;15.50;;;12.75;;
33184;SDS011;19550;42.872;25.494;2023-08-24T09:53:11;15.73;;;12.27;;
33184;SDS011;19550;42.872;25.494;2023-08-24T09:55:44;13.30;;;11.90;;
33184;SDS011;19550;42.872;25.494;2023-08-24T09:58:14;15.13;;;11.82;;
33184;SDS011;19550;42.872;25.494;2023-08-24T10:00:43;13.57;;;11.82;;
33184;SDS011;19550;42.872;25.494;2023-08-24T10:03:12;12.32;;;11.13;;
33184;SDS011;19550;42.872;25.494;2023-08-24T10:05:45;19.25;;;11.68;;
33184;SDS011;19550;42.872;25.494;2023-08-24T10:08:14;17.05;;;11.63;;
33184;SDS011;19550;42.872;25.494;2023-08-24T10:10:43;12.82;;;11.55;;
33184;SDS011;19550;42.872;25.494;2023-08-24T10:13:14;19.98;;;16.17;;
33184;SDS011;19550;42.872;25.494;2023-08-24T10:15:48;11.82;;;10.45;;
33184;SDS011;19550;42.872;25.494;2023-08-24T10:18:18;16.10;;;11.45;;
33184;SDS011;19550;42.872;25.494;2023-08-24T10:20:45;12.77;;;11.48;;
33184;SDS011;19550;42.872;25.494;2023-08-24T10:23:14;17.70;;;11.15;;
33184;SDS011;19550;42.872;25.494;2023-08-24T10:25:42;15.85;;;11.07;;
33184;SDS011;19550;42.872;25.494;2023-08-24T10:28:12;16.35;;;11.75;;
33184;SDS011;19550;42.872;25.494;2023-08-24T10:30:40;14.40;;;11.50;;
33184;SDS011;19550;42.872;25.494;2023-08-24T10:33:11;16.30;;;11.20;;
33184;SDS011;19550;42.872;25.494;2023-08-24T10:35:38;15.52;;;11.43;;
33184;SDS011;19550;42.872;25.494;2023-08-24T10:38:06;13.43;;;11.00;;
33184;SDS011;19550;42.872;25.494;2023-08-24T10:40:33;21.95;;;12.48;;
33184;SDS011;19550;42.872;25.494;2023-08-24T10:43:03;12.93;;;11.05;;
33184;SDS011;19550;42.872;25.494;2023-08-24T10:48:24;13.73;;;12.32;;
33184;SDS011;19550;42.872;25.494;2023-08-24T10:53:46;12.95;;;11.75;;
33184;SDS011;19550;42.872;25.494;2023-08-24T10:56:14;17.17;;;11.90;;
33184;SDS011;19550;42.872;25.494;2023-08-24T10:58:42;13.63;;;12.23;;
33184;SDS011;19550;42.872;25.494;2023-08-24T11:01:19;17.83;;;11.45;;
33184;SDS011;19550;42.872;25.494;2023-08-24T11:03:54;13.75;;;11.73;;
33184;SDS011;19550;42.872;25.494;2023-08-24T11:06:22;12.95;;;11.48;;
33184;SDS011;19550;42.872;25.494;2023-08-24T11:09:04;14.65;;;12.02;;
33184;SDS011;19550;42.872;25.494;2023-08-24T11:11:38;14.32;;;11.27;;
33184;SDS011;19550;42.872;25.494;2023-08-24T11:14:15;13.93;;;11.80;;
33184;SDS011;19550;42.872;25.494;2023-08-24T11:16:45;14.50;;;11.20;;
33184;SDS011;19550;42.872;25.494;2023-08-24T11:19:14;16.25;;;11.57;;
33184;SDS011;19550;42.872;25.494;2023-08-24T11:21:42;13.25;;;11.70;;
33184;SDS011;19550;42.872;25.494;2023-08-24T11:24:10;13.18;;;11.90;;
33184;SDS011;19550;42.872;25.494;2023-08-24T11:29:06;19.15;;;12.65;;
33184;SDS011;19550;42.872;25.494;2023-08-24T11:31:33;13.93;;;12.40;;
33184;SDS011;19550;42.872;25.494;2023-08-24T11:34:00;17.95;;;13.00;;
33184;SDS011;19550;42.872;25.494;2023-08-24T11:36:29;37.97;;;18.50;;
33184;SDS011;19550;42.872;25.494;2023-08-24T11:38:57;17.40;;;14.47;;
33184;SDS011;19550;42.872;25.494;2023-08-24T11:41:25;16.83;;;10.43;;
33184;SDS011;19550;42.872;25.494;2023-08-24T11:44:02;22.10;;;13.60;;
33184;SDS011;19550;42.872;25.494;2023-08-24T11:46:29;21.73;;;16.52;;
33184;SDS011;19550;42.872;25.494;2023-08-24T11:48:57;23.85;;;14.73;;
33184;SDS011;19550;42.872;25.494;2023-08-24T11:51:25;26.15;;;15.13;;
33184;SDS011;19550;42.872;25.494;2023-08-24T11:53:53;25.90;;;17.08;;
33184;SDS011;19550;42.872;25.494;2023-08-24T11:56:23;23.90;;;18.10;;
33184;SDS011;19550;42.872;25.494;2023-08-24T11:58:50;30.98;;;19.77;;
33184;SDS011;19550;42.872;25.494;2023-08-24T12:01:17;27.83;;;19.63;;
33184;SDS011;19550;42.872;25.494;2023-08-24T12:03:44;34.25;;;20.50;;
33184;SDS011;19550;42.872;25.494;2023-08-24T12:06:11;29.75;;;22.08;;
33184;SDS011;19550;42.872;25.494;2023-08-24T12:08:39;29.77;;;20.52;;
33184;SDS011;19550;42.872;25.494;2023-08-24T12:11:12;25.67;;;20.73;;
33184;SDS011;19550;42.872;25.494;2023-08-24T12:13:42;27.83;;;22.33;;
33184;SDS011;19550;42.872;25.494;2023-08-24T12:16:10;30.92;;;24.35;;
33184;SDS011;19550;42.872;25.494;2023-08-24T12:18:46;29.77;;;22.30;;
33184;SDS011;19550;42.872;25.494;2023-08-24T12:21:13;28.88;;;23.77;;
33184;SDS011;19550;42.872;25.494;2023-08-24T12:23:40;28.10;;;23.17;;
33184;SDS011;19550;42.872;25.494;2023-08-24T12:26:07;29.98;;;23.55;;
33184;SDS011;19550;42.872;25.494;2023-08-24T12:28:35;31.17;;;22.85;;
33184;SDS011;19550;42.872;25.494;2023-08-24T12:31:02;29.05;;;23.73;;
33184;SDS011;19550;42.872;25.494;2023-08-24T12:33:30;30.02;;;25.02;;
33184;SDS011;19550;42.872;25.494;2023-08-24T12:35:58;31.25;;;25.33;;
33184;SDS011;19550;42.872;25.494;2023-08-24T12:38:25;34.08;;;24.77;;
33184;SDS011;19550;42.872;25.494;2023-08-24T12:40:52;26.70;;;20.85;;
33184;SDS011;19550;42.872;25.494;2023-08-24T12:43:20;24.88;;;20.02;;
33184;SDS011;19550;42.872;25.494;2023-08-24T12:45:48;25.13;;;20.75;;
33184;SDS011;19550;42.872;25.494;2023-08-24T12:48:15;23.27;;;20.30;;
33184;SDS011;19550;42.872;25.494;2023-08-24T12:50:42;24.95;;;20.05;;
33184;SDS011;19550;42.872;25.494;2023-08-24T12:53:08;24.77;;;21.20;;
33184;SDS011;19550;42.872;25.494;2023-08-24T12:55:39;28.55;;;22.92;;
33184;SDS011;19550;42.872;25.494;2023-08-24T12:58:06;26.85;;;22.80;;
33184;SDS011;19550;42.872;25.494;2023-08-24T13:00:33;28.70;;;21.88;;
33184;SDS011;19550;42.872;25.494;2023-08-24T13:03:01;29.33;;;22.45;;
33184;SDS011;19550;42.872;25.494;2023-08-24T13:05:28;25.13;;;20.58;;
33184;SDS011;19550;42.872;25.494;2023-08-24T13:07:54;21.90;;;18.70;;
33184;SDS011;19550;42.872;25.494;2023-08-24T13:10:22;24.05;;;19.55;;
33184;SDS011;19550;42.872;25.494;2023-08-24T13:12:50;21.63;;;18.92;;
33184;SDS011;19550;42.872;25.494;2023-08-24T13:15:17;23.23;;;19.00;;
33184;SDS011;19550;42.872;25.494;2023-08-24T13:17:43;32.00;;;19.02;;
33184;SDS011;19550;42.872;25.494;2023-08-24T13:20:12;24.38;;;18.13;;
33184;SDS011;19550;42.872;25.494;2023-08-24T13:22:38;23.40;;;18.85;;
33184;SDS011;19550;42.872;25.494;2023-08-24T13:25:06;20.95;;;18.65;;
33184;SDS011;19550;42.872;25.494;2023-08-24T13:27:33;27.25;;;19.05;;
33184;SDS011;19550;42.872;25.494;2023-08-24T13:30:00;24.08;;;20.23;;
33184;SDS011;19550;42.872;25.494;2023-08-24T13:32:28;24.13;;;18.85;;
33184;SDS011;19550;42.872;25.494;2023-08-24T13:34:55;22.10;;;19.73;;
33184;SDS011;19550;42.872;25.494;2023-08-24T13:37:23;25.88;;;19.63;;
33184;SDS011;19550;42.872;25.494;2023-08-24T13:39:50;24.00;;;19.83;;
33184;SDS011;19550;42.872;25.494;2023-08-24T13:42:17;21.25;;;18.33;;
33184;SDS011;19550;42.872;25.494;2023-08-24T13:44:44;22.55;;;19.13;;
33184;SDS011;19550;42.872;25.494;2023-08-24T13:47:11;26.55;;;19.08;;
33184;SDS011;19550;42.872;25.494;2023-08-24T13:49:38;22.38;;;18.45;;
33184;SDS011;19550;42.872;25.494;2023-08-24T13:52:06;21.38;;;19.08;;
33184;SDS011;19550;42.872;25.494;2023-08-24T13:54:34;22.42;;;19.20;;
33184;SDS011;19550;42.872;25.494;2023-08-24T13:57:01;24.25;;;18.20;;
33184;SDS011;19550;42.872;25.494;2023-08-24T13:59:28;22.42;;;17.75;;
33184;SDS011;19550;42.872;25.494;2023-08-24T14:01:55;21.67;;;16.77;;
33184;SDS011;19550;42.872;25.494;2023-08-24T14:04:22;18.52;;;16.67;;
33184;SDS011;19550;42.872;25.494;2023-08-24T14:06:49;19.58;;;17.40;;
33184;SDS011;19550;42.872;25.494;2023-08-24T14:09:16;20.17;;;17.10;;
33184;SDS011;19550;42.872;25.494;2023-08-24T14:11:44;19.42;;;16.58;;
33184;SDS011;19550;42.872;25.494;2023-08-24T14:14:12;20.40;;;17.85;;
33184;SDS011;19550;42.872;25.494;2023-08-24T14:16:39;24.05;;;17.00;;
33184;SDS011;19550;42.872;25.494;2023-08-24T14:19:06;16.65;;;15.13;;
33184;SDS011;19550;42.872;25.494;2023-08-24T14:21:33;18.15;;;16.05;;
33184;SDS011;19550;42.872;25.494;2023-08-24T14:24:00;18.55;;;16.75;;